Indianapolis, IN (46242)

5:48 PM EDT on September 04, 2015 (GMT -0400)
Thompson Medows | | Change Station
CLOSE
Current Station
Personal Weather Station
Location: Indianapolis, IN
Elevation: 745 ft
Nearby Weather Stations

Elev 745 ft 39.69 °N, 86.26 °W | Updated 2 minutes ago

Mostly Cloudy
Mostly Cloudy
92.3 °F
Feels Like 103 °F
N
0.0
Wind Variable Wind from SSW

Today
High -- | Low -- °F
--% Chance of Precip.
Yesterday
High -- | Low -- °F
Precip. -- in
7:15 AM 8:11 PM
Waning Gibbous, 55% visible
Pressure 29.97 in
Visibility 10.0 miles
Clouds Scattered Clouds 6000 ft
Scattered Clouds 11000 ft
Mostly Cloudy 25000 ft
Heat Index 103 °F
Dew Point 74 °F
Humidity 56%
Rainfall 0.00 in
Snow Depth Not available.
UV 2 out of 12
Pollen 10.40 out of 12
Air Quality Not available.
Flu Activity Not available.
METAR KIND 042054Z 22010G18KT 10SM SCT060 SCT110 BKN250 33/19 A2999 RMK AO2 LTG DSNT NE AND E SLP147 CB DSNT N-NE AND E MOV SE T03280189 56013
Pressure 29.97 in
Visibility 10.0 miles
Clouds Scattered Clouds 6000 ft
Scattered Clouds 11000 ft
Mostly Cloudy 25000 ft
Heat Index 103 °F
Dew Point 74 °F
Humidity 56%
Rainfall 0.00 in
Snow Depth Not available.
UV 2 out of 12
Pollen 10.40 out of 12
Air Quality Not available.
Flu Activity Not available.
METAR KIND 042054Z 22010G18KT 10SM SCT060 SCT110 BKN250 33/19 A2999 RMK AO2 LTG DSNT NE AND E SLP147 CB DSNT N-NE AND E MOV SE T03280189 56013

10-Day Weather Forecast

×

Almanac

Astronomy

Sep. 04, 2015 Rise Set
Actual Time
Civil Twilight
Nautical Twilight
Astronomical Twilight
Moon
Length of Visible Light
Length of Day
Tomorrow will be .
, % of the Moon is Illuminated

Today's Extremes

State Highs State Lows

Community

WunderPhotos

Upload Photos

1,852,297 photos uploaded!

WunderBlogs® & News

Nearby

Air Quality

  Air Quality AQ Index Pollutant
Not available.

Snow Depth

Station Depth Elevation

Earthquake Activity

City Distance Mag. Time & Date
Minimum magnitude displayed is 2.5.

Coastal Water Temperatures

Place Temperature

Stations

Nearby Weather Stations

Station Location Temp. Windchill Dew Point Humidity Wind Precip. Elev Updated Type